Time,TemperatureF,DewpointF,PressureIn,WindDirection,WindDirectionDegrees,WindSpeedMPH,WindSpeedGustMPH,Humidity,HourlyPrecipIn,Conditions,Clouds,dailyrainin,SoftwareType,DateUTC
2013-04-24 00:01:00,53.0,49.0,-100.00,WNW,294,1.0,4.0,83,0.00,,,-99.99,,2013-04-24 04:01:00,
2013-04-24 00:03:00,54.0,48.0,-100.00,West,268,1.0,2.0,80,0.00,,,-99.99,,2013-04-24 04:03:00,
2013-04-24 00:12:00,54.0,48.0,-100.00,West,268,1.0,2.0,80,0.00,,,-99.99,,2013-04-24 04:12:00,
2013-04-24 00:23:00,54.0,48.0,-100.00,West,268,1.0,2.0,80,0.00,,,-99.99,,2013-04-24 04:23:00,
2013-04-24 00:33:00,54.0,48.0,-100.00,WSW,248,2.0,6.0,80,0.00,,,-99.99,,2013-04-24 04:33:00,
2013-04-24 00:43:00,54.0,48.0,-100.00,WSW,248,2.0,6.0,80,0.00,,,-99.99,,2013-04-24 04:43:00,
2013-04-24 00:53:00,53.0,48.0,-100.00,WSW,256,2.0,4.0,82,0.00,,,-99.99,,2013-04-24 04:53:00,
2013-04-24 01:02:00,48.0,-99.9,-100.00,WSW,251,2.0,3.0,-999,0.00,,,-99.99,,2013-04-24 05:02:00,
2013-04-24 01:13:00,48.0,-99.9,-100.00,WSW,251,2.0,3.0,-999,0.00,,,-99.99,,2013-04-24 05:13:00,
2013-04-24 01:22:00,48.0,-99.9,-100.00,WSW,251,2.0,3.0,-999,0.00,,,-99.99,,2013-04-24 05:22:00,
2013-04-24 01:32:00,51.0,48.0,-100.00,WSW,243,1.0,2.0,87,0.00,,,-99.99,,2013-04-24 05:32:00,
2013-04-24 01:42:00,51.0,48.0,-100.00,WSW,243,1.0,2.0,87,0.00,,,-99.99,,2013-04-24 05:42:00,
2013-04-24 01:52:00,51.0,48.0,-100.00,WSW,243,1.0,2.0,88,0.00,,,-99.99,,2013-04-24 05:52:00,
2013-04-24 02:02:00,51.0,48.0,-100.00,WSW,243,1.0,2.0,88,0.00,,,-99.99,,2013-04-24 06:02:00,
2013-04-24 02:12:00,50.0,47.0,-100.00,WSW,251,1.0,2.0,89,0.00,,,-99.99,,2013-04-24 06:12:00,
2013-04-24 02:22:00,50.0,47.0,-100.00,WSW,251,1.0,2.0,89,0.00,,,-99.99,,2013-04-24 06:22:00,
2013-04-24 02:33:00,50.0,47.0,-100.00,West,272,0.0,1.0,90,0.00,,,-99.99,,2013-04-24 06:33:00,
2013-04-24 02:42:00,50.0,47.0,-100.00,West,272,0.0,1.0,90,0.00,,,-99.99,,2013-04-24 06:42:00,
2013-04-24 02:52:00,50.0,47.0,-100.00,West,264,0.0,0.0,92,0.00,,,-99.99,,2013-04-24 06:52:00,
2013-04-24 03:02:00,49.0,47.0,-100.00,West,274,0.0,1.0,92,0.00,,,-99.99,,2013-04-24 07:02:00,
2013-04-24 03:11:00,49.0,47.0,-100.00,West,274,0.0,1.0,92,0.00,,,-99.99,,2013-04-24 07:11:00,
2013-04-24 03:22:00,49.0,47.0,-100.00,West,274,0.0,1.0,92,0.00,,,-99.99,,2013-04-24 07:22:00,
2013-04-24 03:32:00,49.0,47.0,-100.00,West,260,0.0,1.0,92,0.00,,,-99.99,,2013-04-24 07:32:00,
2013-04-24 03:42:00,49.0,47.0,-100.00,West,260,0.0,1.0,92,0.00,,,-99.99,,2013-04-24 07:42:00,
2013-04-24 03:52:00,49.0,47.0,-100.00,WNW,282,2.0,3.0,92,0.00,,,-99.99,,2013-04-24 07:52:00,
2013-04-24 04:02:00,49.0,47.0,-100.00,WNW,282,2.0,3.0,92,0.00,,,-99.99,,2013-04-24 08:02:00,
2013-04-24 04:12:00,50.0,48.0,-100.00,West,275,4.0,5.0,93,0.00,,,-99.99,,2013-04-24 08:12:00,
2013-04-24 04:21:00,50.0,48.0,-100.00,West,275,4.0,5.0,93,0.00,,,-99.99,,2013-04-24 08:21:00,
2013-04-24 04:33:00,50.0,47.0,-100.00,West,275,2.0,4.0,91,0.00,,,-99.99,,2013-04-24 08:33:00,
2013-04-24 04:42:00,49.0,47.0,-100.00,West,263,2.0,3.0,92,0.00,,,-99.99,,2013-04-24 08:42:00,
2013-04-24 04:52:00,49.0,47.0,-100.00,West,263,2.0,3.0,92,0.00,,,-99.99,,2013-04-24 08:52:00,
2013-04-24 05:02:00,49.0,47.0,-100.00,West,280,1.0,2.0,93,0.00,,,-99.99,,2013-04-24 09:02:00,
2013-04-24 05:11:00,49.0,47.0,-100.00,West,280,1.0,2.0,93,0.00,,,-99.99,,2013-04-24 09:11:00,
2013-04-24 05:21:00,49.0,47.0,-100.00,West,280,1.0,2.0,93,0.00,,,-99.99,,2013-04-24 09:21:00,
2013-04-24 05:33:00,49.0,47.0,-100.00,West,281,1.0,2.0,93,0.00,,,-99.99,,2013-04-24 09:33:00,
2013-04-24 05:42:00,49.0,47.0,-100.00,WNW,287,0.0,1.0,94,0.00,,,-99.99,,2013-04-24 09:42:00,
2013-04-24 05:53:00,49.0,47.0,-100.00,WNW,287,0.0,1.0,94,0.00,,,-99.99,,2013-04-24 09:53:00,
2013-04-24 06:02:00,49.0,47.0,-100.00,WNW,287,0.0,1.0,94,0.00,,,-99.99,,2013-04-24 10:02:00,
2013-04-24 06:12:00,48.0,47.0,-100.00,North,352,0.0,1.0,94,0.00,,,-99.99,,2013-04-24 10:12:00,
2013-04-24 06:22:00,48.0,47.0,-100.00,North,352,0.0,1.0,94,0.00,,,-99.99,,2013-04-24 10:22:00,
2013-04-24 06:33:00,48.0,47.0,-100.00,NNW,333,0.0,2.0,95,0.00,,,-99.99,,2013-04-24 10:33:00,
2013-04-24 06:42:00,48.0,47.0,-100.00,NNW,333,0.0,2.0,95,0.00,,,-99.99,,2013-04-24 10:42:00,
2013-04-24 06:53:00,48.0,46.0,-100.00,NNW,337,2.0,3.0,95,0.00,,,-99.99,,2013-04-24 10:53:00,
2013-04-24 07:02:00,48.0,46.0,-100.00,NNW,337,2.0,3.0,95,0.00,,,-99.99,,2013-04-24 11:02:00,
2013-04-24 07:12:00,49.0,47.0,-100.00,North,354,2.0,4.0,95,0.00,,,-99.99,,2013-04-24 11:12:00,
2013-04-24 07:22:00,49.0,47.0,-100.00,North,349,1.0,1.0,95,0.00,,,-99.99,,2013-04-24 11:22:00,
2013-04-24 07:32:00,49.0,47.0,-100.00,North,349,1.0,1.0,95,0.00,,,-99.99,,2013-04-24 11:32:00,
2013-04-24 07:42:00,50.0,48.0,-100.00,NW,319,1.0,2.0,95,0.00,,,-99.99,,2013-04-24 11:42:00,
2013-04-24 07:53:00,50.0,48.0,-100.00,NW,319,1.0,2.0,95,0.00,,,-99.99,,2013-04-24 11:53:00,
2013-04-24 08:02:00,51.0,49.0,-100.00,NNW,339,3.0,5.0,95,0.00,,,-99.99,,2013-04-24 12:02:00,
2013-04-24 08:12:00,51.0,49.0,-100.00,NNW,339,3.0,5.0,95,0.00,,,-99.99,,2013-04-24 12:12:00,
2013-04-24 08:22:00,53.0,50.0,-100.00,North,350,5.0,8.0,92,0.00,,,-99.99,,2013-04-24 12:22:00,
2013-04-24 08:32:00,53.0,50.0,-100.00,North,350,5.0,8.0,92,0.00,,,-99.99,,2013-04-24 12:32:00,
2013-04-24 08:42:00,53.0,50.0,-100.00,North,350,5.0,8.0,92,0.00,,,-99.99,,2013-04-24 12:42:00,
2013-04-24 08:52:00,54.0,51.0,-100.00,NW,319,4.0,7.0,87,0.00,,,-99.99,,2013-04-24 12:52:00,
2013-04-24 09:01:00,56.0,51.0,-100.00,North,357,6.0,9.0,83,0.00,,,-99.99,,2013-04-24 13:01:00,
2013-04-24 09:12:00,56.0,51.0,-100.00,North,357,6.0,9.0,83,0.00,,,-99.99,,2013-04-24 13:12:00,
2013-04-24 09:22:00,58.0,52.0,-100.00,North,353,4.0,7.0,79,0.00,,,-99.99,,2013-04-24 13:22:00,
2013-04-24 09:32:00,58.0,52.0,-100.00,North,353,4.0,7.0,79,0.00,,,-99.99,,2013-04-24 13:32:00,
2013-04-24 09:41:00,58.0,52.0,-100.00,North,353,4.0,7.0,79,0.00,,,-99.99,,2013-04-24 13:41:00,
2013-04-24 09:52:00,60.0,52.0,-100.00,North,354,6.0,9.0,75,0.00,,,-99.99,,2013-04-24 13:52:00,
2013-04-24 10:01:00,60.0,52.0,-100.00,North,354,6.0,9.0,75,0.00,,,-99.99,,2013-04-24 14:01:00,
2013-04-24 10:11:00,62.0,53.0,-100.00,West,267,6.0,9.0,71,0.00,,,-99.99,,2013-04-24 14:11:00,
2013-04-24 10:22:00,62.0,53.0,-100.00,West,267,6.0,9.0,71,0.00,,,-99.99,,2013-04-24 14:22:00,
2013-04-24 10:32:00,63.0,53.0,-100.00,WSW,258,6.0,9.0,68,0.00,,,-99.99,,2013-04-24 14:32:00,
2013-04-24 10:42:00,64.0,52.0,-100.00,WSW,239,6.0,10.0,65,0.00,,,-99.99,,2013-04-24 14:42:00,
2013-04-24 10:52:00,64.0,52.0,-100.00,WSW,239,6.0,10.0,65,0.00,,,-99.99,,2013-04-24 14:52:00,
2013-04-24 11:00:00,67.0,53.0,-100.00,WSW,241,5.0,9.0,60,0.00,,,-99.99,,2013-04-24 15:00:00,
2013-04-24 11:01:00,65.0,52.0,-100.00,West,268,9.0,14.0,63,0.00,,,-99.99,,2013-04-24 15:01:00,
2013-04-24 11:11:00,65.0,52.0,-100.00,West,268,9.0,14.0,63,0.00,,,-99.99,,2013-04-24 15:11:00,
2013-04-24 11:22:00,65.0,52.0,-100.00,West,268,9.0,14.0,63,0.00,,,-99.99,,2013-04-24 15:22:00,
2013-04-24 11:33:00,67.0,53.0,-100.00,WSW,241,5.0,9.0,60,0.00,,,-99.99,,2013-04-24 15:33:00,
2013-04-24 11:43:00,67.0,53.0,-100.00,WSW,241,5.0,9.0,60,0.00,,,-99.99,,2013-04-24 15:43:00,
2013-04-24 11:53:00,67.0,53.0,-100.00,WSW,241,5.0,9.0,60,0.00,,,-99.99,,2013-04-24 15:53:00,
2013-04-24 12:12:00,69.0,54.0,-100.00,WSW,251,5.0,8.0,58,0.00,,,-99.99,,2013-04-24 16:12:00,
2013-04-24 12:23:00,70.0,53.0,-100.00,WSW,247,8.0,12.0,54,0.00,,,-99.99,,2013-04-24 16:23:00,
2013-04-24 12:32:00,70.0,53.0,-100.00,WSW,247,8.0,12.0,54,0.00,,,-99.99,,2013-04-24 16:32:00,
2013-04-24 12:42:00,71.0,53.0,-100.00,West,261,6.0,8.0,52,0.00,,,-99.99,,2013-04-24 16:42:00,
2013-04-24 12:53:00,71.0,53.0,-100.00,West,261,6.0,8.0,52,0.00,,,-99.99,,2013-04-24 16:53:00,
2013-04-24 13:02:00,71.0,53.0,-100.00,West,261,6.0,8.0,52,0.00,,,-99.99,,2013-04-24 17:02:00,
2013-04-24 13:12:00,72.0,53.0,-100.00,West,274,9.0,15.0,51,0.00,,,-99.99,,2013-04-24 17:12:00,
2013-04-24 13:22:00,72.0,53.0,-100.00,West,274,9.0,15.0,51,0.00,,,-99.99,,2013-04-24 17:22:00,
2013-04-24 13:32:00,73.0,51.0,-100.00,WSW,240,8.0,14.0,47,0.00,,,-99.99,,2013-04-24 17:32:00,
2013-04-24 13:42:00,73.0,51.0,-100.00,WSW,240,8.0,14.0,47,0.00,,,-99.99,,2013-04-24 17:42:00,
2013-04-24 13:52:00,74.0,51.0,-100.00,WSW,258,9.0,15.0,45,0.00,,,-99.99,,2013-04-24 17:52:00,
2013-04-24 14:02:00,75.0,50.0,-100.00,West,267,9.0,13.0,42,0.00,,,-99.99,,2013-04-24 18:02:00,
2013-04-24 14:12:00,75.0,50.0,-100.00,West,267,9.0,13.0,42,0.00,,,-99.99,,2013-04-24 18:12:00,
2013-04-24 14:22:00,75.0,50.0,-100.00,West,267,9.0,13.0,42,0.00,,,-99.99,,2013-04-24 18:22:00,
2013-04-24 14:33:00,74.0,51.0,-100.00,West,272,16.0,23.0,43,0.00,,,-99.99,,2013-04-24 18:33:00,
2013-04-24 14:42:00,74.0,51.0,-100.00,West,272,16.0,23.0,43,0.00,,,-99.99,,2013-04-24 18:42:00,
2013-04-24 14:52:00,75.0,51.0,-100.00,West,268,8.0,13.0,43,0.00,,,-99.99,,2013-04-24 18:52:00,
2013-04-24 15:02:00,75.0,51.0,-100.00,West,268,8.0,13.0,43,0.00,,,-99.99,,2013-04-24 19:02:00,
2013-04-24 15:12:00,75.0,51.0,-100.00,WSW,244,8.0,12.0,43,0.00,,,-99.99,,2013-04-24 19:12:00,
2013-04-24 15:22:00,75.0,49.0,-100.00,West,264,14.0,22.0,41,0.00,,,-99.99,,2013-04-24 19:22:00,
2013-04-24 15:32:00,75.0,49.0,-100.00,West,264,14.0,22.0,41,0.00,,,-99.99,,2013-04-24 19:32:00,
2013-04-24 15:42:00,75.0,49.0,-100.00,West,264,14.0,22.0,41,0.00,,,-99.99,,2013-04-24 19:42:00,
2013-04-24 15:52:00,76.0,49.0,-100.00,WSW,250,11.0,19.0,39,0.00,,,-99.99,,2013-04-24 19:52:00,
2013-04-24 16:02:00,76.0,49.0,-100.00,WSW,250,11.0,19.0,39,0.00,,,-99.99,,2013-04-24 20:02:00,
2013-04-24 16:11:00,76.0,49.0,-100.00,WSW,253,11.0,18.0,40,0.00,,,-99.99,,2013-04-24 20:11:00,
2013-04-24 16:22:00,76.0,49.0,-100.00,WSW,253,11.0,18.0,40,0.00,,,-99.99,,2013-04-24 20:22:00,
2013-04-24 16:32:00,75.0,50.0,-100.00,West,264,12.0,20.0,42,0.00,,,-99.99,,2013-04-24 20:32:00,
2013-04-24 16:42:00,75.0,50.0,-100.00,West,264,12.0,20.0,42,0.00,,,-99.99,,2013-04-24 20:42:00,
2013-04-24 16:52:00,74.0,50.0,-100.00,West,260,11.0,17.0,42,0.00,,,-99.99,,2013-04-24 20:52:00,
2013-04-24 17:02:00,74.0,50.0,-100.00,West,260,11.0,17.0,42,0.00,,,-99.99,,2013-04-24 21:02:00,
2013-04-24 17:12:00,74.0,50.0,-100.00,West,265,12.0,15.0,43,0.00,,,-99.99,,2013-04-24 21:12:00,
2013-04-24 17:22:00,73.0,50.0,-100.00,WSW,253,8.0,12.0,44,0.00,,,-99.99,,2013-04-24 21:22:00,
2013-04-24 17:33:00,73.0,50.0,-100.00,WSW,253,8.0,12.0,44,0.00,,,-99.99,,2013-04-24 21:33:00,
2013-04-24 17:42:00,73.0,50.0,-100.00,WSW,253,8.0,12.0,44,0.00,,,-99.99,,2013-04-24 21:42:00,
2013-04-24 17:53:00,73.0,51.0,-100.00,West,261,9.0,13.0,46,0.00,,,-99.99,,2013-04-24 21:53:00,
2013-04-24 18:03:00,73.0,51.0,-100.00,West,261,9.0,13.0,46,0.00,,,-99.99,,2013-04-24 22:03:00,
2013-04-24 18:12:00,74.0,51.0,-100.00,WSW,250,10.0,15.0,45,0.00,,,-99.99,,2013-04-24 22:12:00,
2013-04-24 18:20:00,74.0,52.0,-100.00,West,263,9.0,12.0,47,0.00,,,-99.99,,2013-04-24 22:20:00,
2013-04-24 18:22:00,74.0,51.0,-100.00,WSW,250,10.0,15.0,45,0.00,,,-99.99,,2013-04-24 22:22:00,
2013-04-24 18:33:00,75.0,52.0,-100.00,West,265,9.0,14.0,45,0.00,,,-99.99,,2013-04-24 22:33:00,
2013-04-24 18:42:00,75.0,52.0,-100.00,West,265,9.0,14.0,45,0.00,,,-99.99,,2013-04-24 22:42:00,
2013-04-24 18:52:00,74.0,52.0,-100.00,West,263,9.0,12.0,47,0.00,,,-99.99,,2013-04-24 22:52:00,
2013-04-24 19:02:00,74.0,52.0,-100.00,West,263,9.0,12.0,47,0.00,,,-99.99,,2013-04-24 23:02:00,
2013-04-24 19:12:00,74.0,52.0,-100.00,West,263,9.0,12.0,47,0.00,,,-99.99,,2013-04-24 23:12:00,
2013-04-24 20:02:00,72.0,52.0,-100.00,WSW,258,7.0,12.0,50,0.00,,,-99.99,,2013-04-25 00:02:00,
2013-04-24 20:12:00,72.0,52.0,-100.00,WSW,258,7.0,12.0,50,0.00,,,-99.99,,2013-04-25 00:12:00,
2013-04-24 20:23:00,72.0,52.0,-100.00,WSW,258,7.0,12.0,50,0.00,,,-99.99,,2013-04-25 00:23:00,
2013-04-24 20:32:00,71.0,53.0,-100.00,West,263,5.0,9.0,52,0.00,,,-99.99,,2013-04-25 00:32:00,
2013-04-24 20:42:00,71.0,53.0,-100.00,West,263,5.0,9.0,52,0.00,,,-99.99,,2013-04-25 00:42:00,
2013-04-24 20:52:00,70.0,53.0,-100.00,WSW,257,5.0,7.0,56,0.00,,,-99.99,,2013-04-25 00:52:00,
2013-04-24 21:02:00,70.0,53.0,-100.00,WSW,257,5.0,7.0,56,0.00,,,-99.99,,2013-04-25 01:02:00,
2013-04-24 21:12:00,69.0,53.0,-100.00,WSW,246,4.0,7.0,58,0.00,,,-99.99,,2013-04-25 01:12:00,
2013-04-24 21:23:00,69.0,53.0,-100.00,WSW,246,4.0,7.0,58,0.00,,,-99.99,,2013-04-25 01:23:00,
2013-04-24 21:32:00,69.0,54.0,-100.00,WSW,248,4.0,8.0,59,0.00,,,-99.99,,2013-04-25 01:32:00,
2013-04-24 21:42:00,68.0,54.0,-100.00,WSW,251,5.0,7.0,60,0.00,,,-99.99,,2013-04-25 01:42:00,
2013-04-24 21:53:00,68.0,54.0,-100.00,WSW,251,5.0,7.0,60,0.00,,,-99.99,,2013-04-25 01:53:00,
2013-04-24 22:02:00,68.0,54.0,-100.00,WSW,251,5.0,7.0,60,0.00,,,-99.99,,2013-04-25 02:02:00,
2013-04-24 22:11:00,68.0,54.0,-100.00,WSW,258,5.0,8.0,61,0.00,,,-99.99,,2013-04-25 02:11:00,
2013-04-24 22:22:00,68.0,54.0,-100.00,WSW,258,5.0,8.0,61,0.00,,,-99.99,,2013-04-25 02:22:00,
2013-04-24 22:32:00,68.0,54.0,-100.00,WSW,254,6.0,9.0,61,0.00,,,-99.99,,2013-04-25 02:32:00,
2013-04-24 22:42:00,68.0,54.0,-100.00,WSW,254,6.0,9.0,61,0.00,,,-99.99,,2013-04-25 02:42:00,
2013-04-24 22:52:00,68.0,54.0,-100.00,WSW,254,6.0,9.0,61,0.00,,,-99.99,,2013-04-25 02:52:00,
2013-04-24 23:02:00,67.0,54.0,-100.00,WSW,251,4.0,6.0,63,0.00,,,-99.99,,2013-04-25 03:02:00,
2013-04-24 23:11:00,67.0,54.0,-100.00,WSW,246,4.0,7.0,64,0.00,,,-99.99,,2013-04-25 03:11:00,
2013-04-24 23:22:00,67.0,54.0,-100.00,WSW,246,4.0,7.0,64,0.00,,,-99.99,,2013-04-25 03:22:00,
2013-04-24 23:33:00,66.0,54.0,-100.00,WSW,248,3.0,5.0,67,0.00,,,-99.99,,2013-04-25 03:33:00,
2013-04-24 23:43:00,66.0,54.0,-100.00,WSW,248,3.0,5.0,67,0.00,,,-99.99,,2013-04-25 03:43:00,
2013-04-24 23:52:00,65.0,54.0,-100.00,WSW,237,2.0,6.0,68,0.00,,,-99.99,,2013-04-25 03:52:00,